createdAt,value
2022-12-31T00:04:50.727Z,99376.03
2022-12-31T00:09:51.912Z,99385.13
2022-12-31T00:14:53.069Z,99376.81
2022-12-31T00:19:54.246Z,99376.19
2022-12-31T00:24:55.493Z,99378.50
2022-12-31T00:30:02.457Z,99367.34
2022-12-31T00:35:05.580Z,99384.34
2022-12-31T00:40:06.796Z,99378.44
2022-12-31T00:45:08.015Z,99382.31
2022-12-31T00:50:09.193Z,99383.84
2022-12-31T00:55:10.333Z,99376.22
2022-12-31T01:00:11.517Z,99358.69
2022-12-31T01:05:12.723Z,99353.88
2022-12-31T01:10:33.904Z,99358.63
2022-12-31T01:15:35.535Z,99355.69
2022-12-31T01:20:36.793Z,99350.34
2022-12-31T01:25:38.039Z,99359.31
2022-12-31T01:30:39.712Z,99350.69
2022-12-31T01:35:40.925Z,99354.81
2022-12-31T01:40:42.093Z,99364.03
2022-12-31T01:45:43.300Z,99353.09
2022-12-31T01:50:44.522Z,99357.50
2022-12-31T01:55:45.875Z,99376.66
2022-12-31T02:00:47.075Z,99389.22
2022-12-31T02:05:48.276Z,99384.00
2022-12-31T02:10:49.486Z,99382.72
2022-12-31T02:15:50.701Z,99385.47
2022-12-31T02:20:51.900Z,99382.41
2022-12-31T02:25:53.151Z,99379.44
2022-12-31T02:30:54.402Z,99366.81
2022-12-31T02:35:55.638Z,99379.69
2022-12-31T02:40:56.797Z,99369.56
2022-12-31T02:45:58.011Z,99364.97
2022-12-31T02:50:59.241Z,99373.00
2022-12-31T02:56:00.452Z,99387.84
2022-12-31T03:01:20.715Z,99388.16
2022-12-31T03:06:21.935Z,99387.94
2022-12-31T03:11:41.977Z,99378.72
2022-12-31T03:16:43.197Z,99384.63
2022-12-31T03:22:03.029Z,99385.50
2022-12-31T03:27:04.167Z,99396.06
2022-12-31T03:32:05.342Z,99400.78
2022-12-31T03:37:06.876Z,99398.59
2022-12-31T03:42:08.078Z,99403.19
2022-12-31T03:47:09.261Z,99421.69
2022-12-31T03:52:10.564Z,99419.22
2022-12-31T03:57:12.307Z,99428.25
2022-12-31T04:02:13.643Z,99424.28
2022-12-31T04:07:14.969Z,99413.06
2022-12-31T04:12:16.147Z,99403.28
2022-12-31T04:17:17.293Z,99389.84
2022-12-31T04:22:18.441Z,99395.44
2022-12-31T04:27:19.619Z,99398.09
2022-12-31T04:32:20.831Z,99406.13
2022-12-31T04:37:22.026Z,99422.06
2022-12-31T04:42:23.162Z,99429.00
2022-12-31T04:47:24.360Z,99443.44
2022-12-31T04:52:25.579Z,99444.34
2022-12-31T04:57:26.724Z,99461.47
2022-12-31T05:02:27.986Z,99450.13
2022-12-31T05:07:29.207Z,99459.72
2022-12-31T05:12:30.386Z,99457.22
2022-12-31T05:17:31.612Z,99470.53
2022-12-31T05:22:32.782Z,99453.00
2022-12-31T05:27:33.953Z,99456.00
2022-12-31T05:32:35.101Z,99451.59
2022-12-31T05:37:36.252Z,99472.91
2022-12-31T05:42:37.413Z,99471.16
2022-12-31T05:47:38.592Z,99470.97
2022-12-31T05:52:44.162Z,99476.38
2022-12-31T05:57:48.450Z,99482.09
2022-12-31T06:02:49.724Z,99465.44
2022-12-31T06:07:50.972Z,99495.59
2022-12-31T06:12:52.135Z,99486.22
2022-12-31T06:17:53.323Z,99484.59
2022-12-31T06:22:54.581Z,99508.16
2022-12-31T06:27:55.855Z,99516.78
2022-12-31T06:32:57.049Z,99524.59
2022-12-31T06:37:58.191Z,99537.97
2022-12-31T06:43:00.393Z,99552.50
2022-12-31T06:48:01.768Z,99549.41
2022-12-31T06:53:02.956Z,99552.31
2022-12-31T06:58:04.091Z,99557.59
2022-12-31T07:03:05.271Z,99571.97
2022-12-31T07:08:06.527Z,99574.19
2022-12-31T07:13:07.712Z,99579.59
2022-12-31T07:18:08.900Z,99570.88
2022-12-31T07:23:10.043Z,99577.44
2022-12-31T07:28:11.226Z,99587.09
2022-12-31T07:33:12.468Z,99604.03
2022-12-31T07:38:13.701Z,99598.63
2022-12-31T07:43:14.931Z,99600.69
2022-12-31T07:48:16.129Z,99596.00
2022-12-31T07:53:17.312Z,99591.91
2022-12-31T07:58:18.449Z,99602.56
2022-12-31T08:03:19.715Z,99590.75
2022-12-31T08:08:20.937Z,99598.88
2022-12-31T08:13:22.098Z,99609.38
2022-12-31T08:18:23.256Z,99612.38
2022-12-31T08:23:24.472Z,99606.22
2022-12-31T08:28:25.654Z,99629.22
2022-12-31T08:33:26.860Z,99622.38
2022-12-31T08:38:27.998Z,99634.53
2022-12-31T08:43:29.171Z,99636.84
2022-12-31T08:48:30.405Z,99632.56
2022-12-31T08:53:31.970Z,99663.91
2022-12-31T08:58:33.192Z,99672.22
2022-12-31T09:03:34.330Z,99657.53
2022-12-31T09:08:35.498Z,99654.06
2022-12-31T09:13:36.674Z,99664.47
2022-12-31T09:18:37.821Z,99676.94
2022-12-31T09:23:39.021Z,99680.31
2022-12-31T09:28:40.214Z,99699.09
2022-12-31T09:33:42.452Z,99718.59
2022-12-31T09:38:43.691Z,99736.03
2022-12-31T09:43:44.838Z,99735.09
2022-12-31T09:48:46.066Z,99745.88
2022-12-31T09:53:47.272Z,99717.69
2022-12-31T09:58:48.401Z,99772.19
2022-12-31T10:03:49.566Z,99763.22
2022-12-31T10:08:50.745Z,99777.44
2022-12-31T10:13:51.965Z,99778.03
2022-12-31T10:18:53.147Z,99805.53
2022-12-31T10:23:54.391Z,99807.72
2022-12-31T10:28:58.576Z,99812.28
2022-12-31T10:33:59.737Z,99788.59
2022-12-31T10:39:00.892Z,99774.16
2022-12-31T10:44:02.179Z,99775.34
2022-12-31T10:49:03.339Z,99792.97
2022-12-31T10:54:04.511Z,99790.22
2022-12-31T10:59:05.648Z,99788.31
2022-12-31T11:04:06.813Z,99777.81
2022-12-31T11:09:08.012Z,99791.59
2022-12-31T11:14:09.269Z,99798.69
2022-12-31T11:19:10.433Z,99797.91
2022-12-31T11:24:11.658Z,99790.81
2022-12-31T11:29:12.789Z,99787.31
2022-12-31T11:34:13.917Z,99785.69
2022-12-31T11:39:15.140Z,99786.81
2022-12-31T11:44:16.315Z,99770.78
2022-12-31T11:49:17.519Z,99768.41
2022-12-31T11:54:18.651Z,99752.06
2022-12-31T11:59:20.065Z,99746.31
2022-12-31T12:04:21.244Z,99743.34
2022-12-31T12:09:22.398Z,99743.78
2022-12-31T12:14:23.580Z,99730.66
2022-12-31T12:19:24.786Z,99743.16
2022-12-31T12:24:25.964Z,99732.72
2022-12-31T12:29:27.229Z,99736.06
2022-12-31T12:34:28.456Z,99758.63
2022-12-31T12:39:29.675Z,99739.50
2022-12-31T12:44:30.928Z,99729.31
2022-12-31T12:49:32.121Z,99727.34
2022-12-31T12:54:33.359Z,99739.56
2022-12-31T12:59:34.748Z,99745.63
2022-12-31T13:04:36.045Z,99751.16
2022-12-31T13:09:37.283Z,99777.28
2022-12-31T13:14:38.475Z,99791.66
2022-12-31T13:19:39.706Z,99799.44
2022-12-31T13:24:40.887Z,99813.28
2022-12-31T13:29:42.075Z,99802.72
2022-12-31T13:34:43.963Z,99819.06
2022-12-31T13:39:45.172Z,99832.84
2022-12-31T13:44:46.432Z,99817.84
2022-12-31T13:49:47.652Z,99813.03
2022-12-31T13:54:48.810Z,99803.19
2022-12-31T13:59:50.011Z,99813.50
2022-12-31T14:04:51.266Z,99829.00
2022-12-31T14:09:52.456Z,99841.22
2022-12-31T14:14:53.710Z,99818.25
2022-12-31T14:19:55.300Z,99813.16
2022-12-31T14:24:56.435Z,99832.66
2022-12-31T14:29:57.737Z,99819.72
2022-12-31T14:34:59.342Z,99811.84
2022-12-31T14:40:00.519Z,99802.94
2022-12-31T14:45:01.662Z,99805.56
2022-12-31T14:50:02.797Z,99795.31
2022-12-31T14:55:04.008Z,99803.03
2022-12-31T15:00:05.236Z,99799.75
2022-12-31T15:05:06.441Z,99804.50
2022-12-31T15:10:07.602Z,99796.69
2022-12-31T15:15:08.782Z,99797.59
2022-12-31T15:20:16.683Z,99793.78
2022-12-31T15:25:18.616Z,99818.56
2022-12-31T15:30:19.786Z,99816.13
2022-12-31T15:35:20.931Z,99818.09
2022-12-31T15:40:24.960Z,99830.44
2022-12-31T15:45:26.205Z,99828.97
2022-12-31T15:50:27.436Z,99836.03
2022-12-31T15:55:28.590Z,99833.81
2022-12-31T16:00:29.761Z,99838.22
2022-12-31T16:05:30.898Z,99837.31
2022-12-31T16:10:32.051Z,99832.81
2022-12-31T16:15:33.260Z,99835.06
2022-12-31T16:20:34.728Z,99832.25
2022-12-31T16:25:35.941Z,99843.97
2022-12-31T16:30:37.198Z,99838.56
2022-12-31T16:35:38.376Z,99831.91
2022-12-31T16:40:39.642Z,99829.09
2022-12-31T16:45:40.805Z,99835.59
2022-12-31T16:50:41.941Z,99831.44
2022-12-31T16:55:43.107Z,99841.53
2022-12-31T17:00:44.336Z,99836.03
2022-12-31T17:05:45.536Z,99843.28
2022-12-31T17:10:46.828Z,99850.13
2022-12-31T17:15:48.037Z,99840.06
2022-12-31T17:20:49.230Z,99860.88
2022-12-31T17:25:50.424Z,99844.91
2022-12-31T17:30:51.602Z,99843.84
2022-12-31T17:35:52.762Z,99842.91
2022-12-31T17:40:53.969Z,99851.91
2022-12-31T17:45:55.188Z,99829.13
2022-12-31T17:50:56.367Z,99827.75
2022-12-31T17:55:57.555Z,99822.47
2022-12-31T18:00:58.895Z,99821.28
2022-12-31T18:06:00.224Z,99824.56
2022-12-31T18:11:01.436Z,99819.41
2022-12-31T18:16:02.647Z,99819.03
2022-12-31T18:21:03.914Z,99820.44
2022-12-31T18:26:05.045Z,99817.09
2022-12-31T18:31:06.212Z,99818.53
2022-12-31T18:36:09.234Z,99815.28
2022-12-31T18:41:11.031Z,99812.38
2022-12-31T18:46:12.247Z,99815.75
2022-12-31T18:51:13.467Z,99821.66
2022-12-31T18:56:14.722Z,99821.22
2022-12-31T19:01:15.960Z,99818.41
2022-12-31T19:06:17.272Z,99813.88
2022-12-31T19:11:18.507Z,99819.28
2022-12-31T19:16:19.820Z,99816.44
2022-12-31T19:21:22.314Z,99813.38
2022-12-31T19:26:23.566Z,99816.84
2022-12-31T19:31:24.761Z,99814.50
2022-12-31T19:36:26.035Z,99823.84
2022-12-31T19:41:27.256Z,99815.56
2022-12-31T19:46:28.470Z,99834.25
2022-12-31T19:51:29.666Z,99846.31
2022-12-31T19:56:30.801Z,99848.13
2022-12-31T20:01:32.080Z,99850.84
2022-12-31T20:06:33.302Z,99869.00
2022-12-31T20:11:34.554Z,99882.59
2022-12-31T20:16:35.755Z,99890.25
2022-12-31T20:21:36.999Z,99893.38
2022-12-31T20:26:38.241Z,99903.94
2022-12-31T20:31:39.563Z,99914.00
2022-12-31T20:36:40.748Z,99918.78
2022-12-31T20:41:41.995Z,99915.38
2022-12-31T20:46:43.275Z,99925.06
2022-12-31T20:51:50.353Z,99933.16
2022-12-31T20:56:53.323Z,99927.09
2022-12-31T21:02:20.658Z,99928.66
2022-12-31T21:07:15.697Z,99938.59
2022-12-31T21:12:35.639Z,99937.00
2022-12-31T21:17:36.801Z,99939.38
2022-12-31T21:22:38.026Z,99944.50
2022-12-31T21:27:39.245Z,99954.22
2022-12-31T21:32:40.515Z,99962.50
2022-12-31T21:37:58.465Z,99961.91
2022-12-31T21:43:01.788Z,99962.34
2022-12-31T21:48:21.978Z,99968.78
2022-12-31T21:53:26.154Z,99971.06
2022-12-31T21:58:29.196Z,99965.66
2022-12-31T22:03:31.717Z,99977.59
2022-12-31T22:08:33.155Z,99972.72
2022-12-31T22:13:34.319Z,99975.19
2022-12-31T22:18:38.521Z,99990.03
2022-12-31T22:23:39.871Z,99977.09
2022-12-31T22:28:41.098Z,99988.19
2022-12-31T22:33:42.541Z,99990.50
2022-12-31T22:38:43.783Z,99993.94
2022-12-31T22:43:44.988Z,99992.06
2022-12-31T22:48:46.276Z,99994.13
2022-12-31T22:53:47.447Z,99998.13
2022-12-31T22:58:48.636Z,99987.16
2022-12-31T23:03:49.851Z,99998.34
2022-12-31T23:09:09.936Z,99988.56
2022-12-31T23:14:29.761Z,99976.91
2022-12-31T23:19:49.585Z,99988.06
2022-12-31T23:24:50.749Z,99984.00
2022-12-31T23:29:51.891Z,99989.03
2022-12-31T23:34:53.859Z,99979.81
2022-12-31T23:39:55.035Z,99981.75
2022-12-31T23:44:56.232Z,99985.72
2022-12-31T23:49:57.412Z,99984.97
2022-12-31T23:54:58.592Z,99999.41
